Time;durP1;ratioP1;P1;durP2;ratioP2;P2;SDS_P1;SDS_P2;PMS_P1;PMS_P2;Temp;Humidity;BMP_temperature;BMP_pressure;BME280_temperature;BME280_humidity;BME280_pressure;Samples;Min_cycle;Max_cycle;Signal;HPM_P1;HPM_P2
2022/09/17 00:05:17;;;;;;;3.7;7.9;;;;;;;10.8;84.4;97790;;;;
2022/09/17 00:16:17;;;;;;;3.7;7.9;;;;;;;11;83.9;97790;;;;
2022/09/17 00:26:17;;;;;;;2.7;5.4;;;;;;;11.1;83.2;97780;;;;
2022/09/17 00:37:17;;;;;;;2.7;5.4;;;;;;;10.9;82.5;97790;;;;
2022/09/17 00:48:17;;;;;;;2.7;5.4;;;;;;;10.6;82.7;97800;;;;
2022/09/17 00:59:17;;;;;;;2.9;7.5;;;;;;;10.5;83.2;97790;;;;
2022/09/17 01:10:17;;;;;;;2.9;7.5;;;;;;;10.3;83;97780;;;;
2022/09/17 01:20:17;;;;;;;2.3;4.6;;;;;;;10.2;83.7;97780;;;;
2022/09/17 01:31:17;;;;;;;2.3;4.6;;;;;;;10.2;83.8;97780;;;;
2022/09/17 01:42:17;;;;;;;2.3;4.6;;;;;;;10.1;84.2;97790;;;;
2022/09/17 01:52:17;;;;;;;2.5;5;;;;;;;10;84.3;97790;;;;
2022/09/17 02:02:17;;;;;;;2.5;5;;;;;;;10;83.9;97780;;;;
2022/09/17 02:12:17;;;;;;;2.5;5;;;;;;;9.9;83.9;97790;;;;
2022/09/17 02:23:17;;;;;;;2.6;7.5;;;;;;;9.8;84.4;97790;;;;
2022/09/17 02:33:17;;;;;;;2.6;7.5;;;;;;;9.7;84;97800;;;;
2022/09/17 02:44:17;;;;;;;2.6;7.5;;;;;;;9.6;84;97800;;;;
2022/09/17 02:55:17;;;;;;;2;3.7;;;;;;;9.6;84;97780;;;;
2022/09/17 03:05:17;;;;;;;2;3.7;;;;;;;9.5;83.9;97770;;;;
2022/09/17 03:16:17;;;;;;;2;3.7;;;;;;;9.4;84;97760;;;;
2022/09/17 03:27:17;;;;;;;2.4;4.3;;;;;;;9.1;84;97750;;;;
2022/09/17 03:37:17;;;;;;;2.4;4.3;;;;;;;9;85.6;97760;;;;
2022/09/17 03:48:17;;;;;;;2.4;4.3;;;;;;;9;87.3;97750;;;;
2022/09/17 03:59:17;;;;;;;2.2;4.3;;;;;;;9;87.5;97740;;;;
2022/09/17 04:09:17;;;;;;;2.2;4.3;;;;;;;9;87.5;97730;;;;
2022/09/17 04:20:17;;;;;;;2;3.9;;;;;;;9.1;87.6;97720;;;;
2022/09/17 04:31:17;;;;;;;2;3.9;;;;;;;9.1;87.6;97730;;;;
2022/09/17 04:41:17;;;;;;;2;3.9;;;;;;;9.2;87.4;97750;;;;
2022/09/17 04:51:17;;;;;;;3.1;4.7;;;;;;;9.3;87.1;97750;;;;
2022/09/17 05:02:17;;;;;;;3.1;4.7;;;;;;;9.6;87;97730;;;;
2022/09/17 05:13:17;;;;;;;3.1;4.7;;;;;;;9.9;86.3;97720;;;;
2022/09/17 05:23:17;;;;;;;2.6;5.2;;;;;;;10.2;86.1;97750;;;;
2022/09/17 05:34:17;;;;;;;2.6;5.2;;;;;;;10.5;85.3;97740;;;;
2022/09/17 05:45:17;;;;;;;2.6;5.2;;;;;;;10.9;84.3;97720;;;;
2022/09/17 05:55:17;;;;;;;3.4;6.8;;;;;;;10.9;83.5;97750;;;;
2022/09/17 06:05:17;;;;;;;3.4;6.8;;;;;;;11.3;83.3;97750;;;;
2022/09/17 06:16:17;;;;;;;3.4;6.8;;;;;;;11.8;82.3;97730;;;;
2022/09/17 06:26:17;;;;;;;2.6;4.7;;;;;;;12.3;81.5;97730;;;;
2022/09/17 06:37:17;;;;;;;2.6;4.7;;;;;;;12.9;80;97750;;;;
2022/09/17 06:48:17;;;;;;;2.7;5.3;;;;;;;13.3;78.4;97730;;;;
2022/09/17 06:58:17;;;;;;;2.7;5.3;;;;;;;13.6;76.2;97740;;;;
2022/09/17 07:09:17;;;;;;;2.7;5.3;;;;;;;13.9;76.5;97740;;;;
2022/09/17 07:19:17;;;;;;;3.1;8;;;;;;;14.2;74.6;97740;;;;
2022/09/17 07:30:17;;;;;;;3.1;8;;;;;;;14.7;72.7;97760;;;;
2022/09/17 07:40:17;;;;;;;3.1;8;;;;;;;14.5;70.5;97780;;;;
2022/09/17 07:51:17;;;;;;;4;7.5;;;;;;;14.6;70.8;97780;;;;
2022/09/17 08:02:17;;;;;;;4;7.5;;;;;;;14.8;70.2;97780;;;;
2022/09/17 08:13:17;;;;;;;4;7.5;;;;;;;15.2;68.7;97760;;;;
2022/09/17 08:24:17;;;;;;;3.4;6.8;;;;;;;14.9;66.6;97760;;;;
2022/09/17 08:34:17;;;;;;;3.4;6.8;;;;;;;15.1;65.2;97770;;;;
2022/09/17 08:44:17;;;;;;;3.4;6.8;;;;;;;15;65.2;97760;;;;
2022/09/17 08:55:17;;;;;;;2.4;5;;;;;;;15.2;63.9;97770;;;;
2022/09/17 09:06:17;;;;;;;2.4;5;;;;;;;15.3;64.2;97750;;;;
2022/09/17 09:17:17;;;;;;;2.4;5;;;;;;;15.3;63.5;97740;;;;
2022/09/17 09:28:17;;;;;;;2.6;4.8;;;;;;;15.2;62.3;97740;;;;
2022/09/17 09:39:17;;;;;;;2.6;4.8;;;;;;;15.8;63;97770;;;;
2022/09/17 09:50:17;;;;;;;2.5;5.3;;;;;;;16.1;62.2;97770;;;;
2022/09/17 10:00:17;;;;;;;2.5;5.3;;;;;;;16.6;61.2;97760;;;;
2022/09/17 10:11:17;;;;;;;2.5;5.3;;;;;;;16.4;59.4;97780;;;;
2022/09/17 10:22:17;;;;;;;2.6;4.8;;;;;;;16.5;59.7;97780;;;;
2022/09/17 10:32:17;;;;;;;2.6;4.8;;;;;;;16.2;59.7;97780;;;;
2022/09/17 10:42:18;;;;;;;2.6;4.8;;;;;;;16.2;59.9;97770;;;;
2022/09/17 10:53:17;;;;;;;2.6;6.3;;;;;;;16.6;58.4;97770;;;;
2022/09/17 11:03:17;;;;;;;2.6;6.3;;;;;;;16.8;58.5;97760;;;;
2022/09/17 11:13:17;;;;;;;2.6;6.3;;;;;;;17.2;56.9;97770;;;;
2022/09/17 11:23:17;;;;;;;2.7;7.2;;;;;;;16.9;56.3;97770;;;;
2022/09/17 11:33:17;;;;;;;2.7;7.2;;;;;;;17.1;57;97770;;;;
2022/09/17 11:44:17;;;;;;;2.7;7.2;;;;;;;17.3;57.3;97770;;;;
2022/09/17 11:55:17;;;;;;;2.6;4.6;;;;;;;16.7;57.2;97780;;;;
2022/09/17 12:05:17;;;;;;;2.6;4.6;;;;;;;15.9;60.3;97770;;;;
2022/09/17 12:16:17;;;;;;;2.6;4.6;;;;;;;15.4;62.5;97760;;;;
2022/09/17 12:26:17;;;;;;;2.4;5.2;;;;;;;15.6;62.8;97750;;;;
2022/09/17 12:36:18;;;;;;;2.4;5.2;;;;;;;15.5;62.7;97730;;;;
2022/09/17 12:47:17;;;;;;;2.4;5.2;;;;;;;15.5;62;97720;;;;
2022/09/17 12:57:17;;;;;;;2.8;7.3;;;;;;;15.5;62.3;97710;;;;
2022/09/17 13:08:17;;;;;;;2.8;7.3;;;;;;;15.2;63.2;97700;;;;
2022/09/17 13:18:17;;;;;;;3.6;6.4;;;;;;;15.2;64.1;97700;;;;
2022/09/17 13:29:17;;;;;;;3.6;6.4;;;;;;;15.2;65.4;97710;;;;
2022/09/17 13:40:17;;;;;;;3.6;6.4;;;;;;;15.3;65;97710;;;;
2022/09/17 13:51:17;;;;;;;3.6;6.2;;;;;;;15.2;64.7;97700;;;;
2022/09/17 14:01:17;;;;;;;3.6;6.2;;;;;;;15;65.5;97700;;;;
2022/09/17 14:12:17;;;;;;;3.6;6.2;;;;;;;15;65.7;97670;;;;
2022/09/17 14:22:17;;;;;;;4.3;7.2;;;;;;;15;66.3;97670;;;;
2022/09/17 14:33:17;;;;;;;4.3;7.2;;;;;;;14.7;67.5;97680;;;;
2022/09/17 14:44:17;;;;;;;4.3;7.2;;;;;;;14.5;68.9;97680;;;;
2022/09/17 14:54:17;;;;;;;4.8;8.3;;;;;;;14.3;69.7;97690;;;;
2022/09/17 15:05:17;;;;;;;4.8;8.3;;;;;;;14.1;70.4;97680;;;;
2022/09/17 15:16:17;;;;;;;4.8;8.3;;;;;;;14.1;71;97650;;;;
2022/09/17 15:27:19;;;;;;;6;10;;;;;;;14;70.2;97650;;;;
2022/09/17 15:37:17;;;;;;;6;10;;;;;;;14.1;70.7;97660;;;;
2022/09/17 15:48:17;;;;;;;6.1;9.3;;;;;;;14;71.3;97670;;;;
2022/09/17 15:59:17;;;;;;;6.1;9.3;;;;;;;13.9;72.3;97680;;;;
2022/09/17 16:09:17;;;;;;;6.1;9.3;;;;;;;13.7;73.6;97680;;;;
2022/09/17 16:19:17;;;;;;;8.8;14.8;;;;;;;13.6;74;97690;;;;
2022/09/17 16:29:17;;;;;;;8.8;14.8;;;;;;;13.6;74.3;97690;;;;
2022/09/17 16:39:17;;;;;;;8.8;14.8;;;;;;;13.4;74.8;97690;;;;
2022/09/17 16:50:18;;;;;;;7.4;11.3;;;;;;;13.2;75;97680;;;;
2022/09/17 17:00:18;;;;;;;7.4;11.3;;;;;;;13.2;74.6;97690;;;;
2022/09/17 17:11:17;;;;;;;7.4;11.3;;;;;;;12.9;74.7;97670;;;;
2022/09/17 17:22:17;;;;;;;4.5;7.9;;;;;;;12.7;75.3;97670;;;;
2022/09/17 17:33:17;;;;;;;4.5;7.9;;;;;;;12.5;76.2;97670;;;;
2022/09/17 17:44:17;;;;;;;4.5;7.9;;;;;;;12.4;76.7;97650;;;;
2022/09/17 17:54:17;;;;;;;6.5;9.1;;;;;;;12.3;77.1;97660;;;;
2022/09/17 18:04:17;;;;;;;6.5;9.1;;;;;;;12.2;77.6;97660;;;;
2022/09/17 18:14:17;;;;;;;6.5;9.1;;;;;;;12.2;78.3;97650;;;;
2022/09/17 18:24:17;;;;;;;8;11.7;;;;;;;12.2;78.6;97650;;;;
2022/09/17 18:35:18;;;;;;;8;11.7;;;;;;;12.2;78.9;97660;;;;
2022/09/17 18:45:17;;;;;;;8;11.7;;;;;;;12.2;79.3;97680;;;;
2022/09/17 18:55:17;;;;;;;9.7;14.9;;;;;;;12.1;79.9;97690;;;;
2022/09/17 19:06:17;;;;;;;9.7;14.9;;;;;;;12.1;80.3;97680;;;;
2022/09/17 19:16:17;;;;;;;9.7;14.9;;;;;;;12.1;80.6;97670;;;;
2022/09/17 19:27:17;;;;;;;14.5;18.7;;;;;;;12.1;81.2;97670;;;;
2022/09/17 19:37:17;;;;;;;14.5;18.7;;;;;;;12.1;81.4;97670;;;;
2022/09/17 19:48:18;;;;;;;23.1;27.4;;;;;;;12.2;81.2;97670;;;;
2022/09/17 19:59:17;;;;;;;23.1;27.4;;;;;;;12.1;81.8;97660;;;;
2022/09/17 20:10:17;;;;;;;23.1;27.4;;;;;;;12.1;81.6;97670;;;;
2022/09/17 20:20:17;;;;;;;16.2;18.9;;;;;;;12.1;81.5;97670;;;;
2022/09/17 20:31:17;;;;;;;16.2;18.9;;;;;;;12.1;81.5;97650;;;;
2022/09/17 20:42:17;;;;;;;16.2;18.9;;;;;;;12;81.2;97650;;;;
2022/09/17 20:52:17;;;;;;;17.3;21.3;;;;;;;11.9;81.2;97650;;;;
2022/09/17 21:02:19;;;;;;;17.3;21.3;;;;;;;11.9;81.2;97650;;;;
2022/09/17 21:13:18;;;;;;;17.3;21.3;;;;;;;11.8;81.6;97640;;;;
2022/09/17 21:24:17;;;;;;;11.9;14.9;;;;;;;11.7;82;97630;;;;
2022/09/17 21:34:17;;;;;;;11.9;14.9;;;;;;;11.7;82.4;97630;;;;
2022/09/17 21:45:18;;;;;;;11.9;14.9;;;;;;;11.7;82.7;97640;;;;
2022/09/17 21:56:18;;;;;;;10.3;14.8;;;;;;;11.8;82.6;97640;;;;
2022/09/17 22:06:18;;;;;;;10.3;14.8;;;;;;;11.8;82.4;97650;;;;
2022/09/17 22:17:17;;;;;;;7.7;14.8;;;;;;;11.7;82.4;97650;;;;
2022/09/17 22:28:17;;;;;;;7.7;10.5;;;;;;;11.7;81.9;97650;;;;
2022/09/17 22:38:18;;;;;;;7.7;10.5;;;;;;;11.7;82.2;97650;;;;
2022/09/17 22:49:18;;;;;;;6.5;9.9;;;;;;;11.7;82.4;97660;;;;
2022/09/17 23:00:18;;;;;;;6.5;9.9;;;;;;;11.6;82.8;97650;;;;
2022/09/17 23:10:17;;;;;;;6.5;9.9;;;;;;;11.4;84;97650;;;;
2022/09/17 23:21:17;;;;;;;3.6;6.4;;;;;;;11.3;84.8;97650;;;;
2022/09/17 23:31:17;;;;;;;3.6;6.4;;;;;;;11.3;85.4;97640;;;;
2022/09/17 23:42:17;;;;;;;3.6;6.4;;;;;;;11.1;86;97630;;;;
2022/09/17 23:53:17;;;;;;;5.2;8.9;;;;;;;10.9;86.5;97630;;;;
